createdAt,value
2023-05-09T00:01:59.814Z,100438.28
2023-05-09T00:04:28.149Z,100438.28
2023-05-09T00:06:56.001Z,100438.47
2023-05-09T00:09:23.976Z,100439.44
2023-05-09T00:11:53.262Z,100440.09
2023-05-09T00:14:21.178Z,100438.47
2023-05-09T00:16:49.462Z,100441.00
2023-05-09T00:19:17.433Z,100435.03
2023-05-09T00:21:45.289Z,100431.66
2023-05-09T00:24:13.180Z,100435.81
2023-05-09T00:26:41.035Z,100432.97
2023-05-09T00:29:10.367Z,100426.25
2023-05-09T00:31:38.390Z,100425.28
2023-05-09T00:34:06.289Z,100425.63
2023-05-09T00:36:34.161Z,100430.44
2023-05-09T00:39:01.992Z,100424.44
2023-05-09T00:41:29.917Z,100425.16
2023-05-09T00:43:57.771Z,100423.63
2023-05-09T00:46:28.085Z,100420.34
2023-05-09T00:48:56.748Z,100418.66
2023-05-09T00:51:25.103Z,100423.03
2023-05-09T00:53:53.003Z,100414.81
2023-05-09T00:56:21.742Z,100405.88
2023-05-09T00:58:50.025Z,100411.75
2023-05-09T01:01:18.028Z,100411.19
2023-05-09T01:03:47.783Z,100417.78
2023-05-09T01:06:23.644Z,100419.06
2023-05-09T01:08:59.902Z,100419.06
2023-05-09T01:11:33.276Z,100421.09
2023-05-09T01:14:13.282Z,100418.69
2023-05-09T01:16:48.334Z,100419.72
2023-05-09T01:19:37.602Z,100416.53
2023-05-09T01:22:10.077Z,100418.34
2023-05-09T01:24:58.306Z,100401.16
2023-05-09T01:27:44.473Z,100410.75
2023-05-09T01:30:15.229Z,100415.69
2023-05-09T01:32:45.918Z,100414.34
2023-05-09T01:35:15.799Z,100420.72
2023-05-09T01:37:46.450Z,100424.69
2023-05-09T01:40:17.284Z,100419.72
2023-05-09T01:42:48.643Z,100424.63
2023-05-09T01:45:19.308Z,100422.72
2023-05-09T01:47:50.052Z,100424.94
2023-05-09T01:50:19.747Z,100426.25
2023-05-09T01:52:50.037Z,100416.78
2023-05-09T01:55:19.831Z,100420.97
2023-05-09T01:57:49.118Z,100420.81
2023-05-09T02:00:20.006Z,100423.03
2023-05-09T02:02:48.441Z,100423.03
2023-05-09T02:05:18.916Z,100423.59
2023-05-09T02:07:48.453Z,100425.25
2023-05-09T02:10:16.999Z,100421.66
2023-05-09T02:12:44.951Z,100427.03
2023-05-09T02:15:13.030Z,100428.41
2023-05-09T02:17:43.597Z,100424.47
2023-05-09T02:20:12.169Z,100414.13
2023-05-09T02:22:42.029Z,100416.75
2023-05-09T02:25:15.209Z,100411.38
2023-05-09T02:27:45.859Z,100417.00
2023-05-09T02:30:20.514Z,100415.38
2023-05-09T02:32:51.814Z,100417.91
2023-05-09T02:35:22.976Z,100399.53
2023-05-09T02:37:50.998Z,100411.56
2023-05-09T02:40:20.237Z,100410.22
2023-05-09T02:42:48.606Z,100401.78
2023-05-09T02:45:17.132Z,100405.31
2023-05-09T02:47:45.240Z,100411.50
2023-05-09T02:50:14.631Z,100407.84
2023-05-09T02:52:43.472Z,100412.81
2023-05-09T02:55:11.843Z,100407.59
2023-05-09T02:57:41.975Z,100406.38
2023-05-09T03:00:11.253Z,100402.47
2023-05-09T03:02:40.402Z,100409.44
2023-05-09T03:05:16.145Z,100411.28
2023-05-09T03:07:44.514Z,100416.13
2023-05-09T03:10:12.524Z,100410.50
2023-05-09T03:12:43.677Z,100412.16
2023-05-09T03:15:13.065Z,100409.72
2023-05-09T03:17:42.380Z,100413.09
2023-05-09T03:20:11.297Z,100416.94
2023-05-09T03:22:40.555Z,100412.91
2023-05-09T03:25:10.921Z,100420.88
2023-05-09T03:27:39.960Z,100417.31
2023-05-09T03:30:12.456Z,100419.44
2023-05-09T03:32:41.043Z,100426.50
2023-05-09T03:35:09.454Z,100422.97
2023-05-09T03:37:37.363Z,100427.13
2023-05-09T03:40:10.217Z,100429.91
2023-05-09T03:42:46.332Z,100426.44
2023-05-09T03:45:14.457Z,100428.22
2023-05-09T03:47:43.796Z,100424.16
2023-05-09T03:50:12.671Z,100422.72
2023-05-09T03:52:40.578Z,100428.63
2023-05-09T03:55:11.011Z,100428.00
2023-05-09T03:57:40.053Z,100425.03
2023-05-09T04:00:10.282Z,100422.53
2023-05-09T04:02:52.058Z,100422.22
2023-05-09T04:05:33.607Z,100428.91
2023-05-09T04:08:02.564Z,100420.50
2023-05-09T04:10:33.279Z,100425.22
2023-05-09T04:13:01.660Z,100424.56
2023-05-09T04:15:29.622Z,100432.00
2023-05-09T04:17:58.984Z,100433.22
2023-05-09T04:20:27.099Z,100431.38
2023-05-09T04:22:55.553Z,100426.50
2023-05-09T04:25:23.529Z,100431.09
2023-05-09T04:27:53.205Z,100433.59
2023-05-09T04:30:22.504Z,100434.56
2023-05-09T04:32:50.486Z,100427.13
2023-05-09T04:35:20.722Z,100422.38
2023-05-09T04:37:50.452Z,100427.66
2023-05-09T04:40:18.788Z,100428.03
2023-05-09T04:43:03.272Z,100434.06
2023-05-09T04:45:32.228Z,100427.03
2023-05-09T04:48:01.529Z,100431.38
2023-05-09T04:50:30.517Z,100430.59
2023-05-09T04:52:58.404Z,100435.31
2023-05-09T04:55:26.426Z,100431.91
2023-05-09T04:57:56.302Z,100442.13
2023-05-09T05:00:25.642Z,100439.22
2023-05-09T05:02:53.524Z,100425.31
2023-05-09T05:05:25.122Z,100424.34
2023-05-09T05:07:54.499Z,100423.28
2023-05-09T05:10:26.733Z,100425.34
2023-05-09T05:13:03.215Z,100421.91
2023-05-09T05:15:32.663Z,100429.97
2023-05-09T05:18:00.576Z,100431.56
2023-05-09T05:20:33.185Z,100420.50
2023-05-09T05:23:01.708Z,100421.06
2023-05-09T05:25:29.748Z,100418.28
2023-05-09T05:27:58.804Z,100424.59
2023-05-09T05:30:26.715Z,100418.25
2023-05-09T05:32:56.066Z,100419.25
2023-05-09T05:35:24.776Z,100421.03
2023-05-09T05:37:54.041Z,100421.31
2023-05-09T05:40:23.270Z,100421.19
2023-05-09T05:42:52.495Z,100415.47
2023-05-09T05:45:20.607Z,100417.53
2023-05-09T05:47:51.850Z,100412.41
2023-05-09T05:50:21.598Z,100415.56
2023-05-09T05:52:49.473Z,100414.84
2023-05-09T05:55:19.372Z,100409.88
2023-05-09T05:57:48.665Z,100413.69
2023-05-09T06:00:17.855Z,100414.78
2023-05-09T06:02:49.984Z,100417.56
2023-05-09T06:05:44.669Z,100417.69
2023-05-09T06:08:13.231Z,100416.81
2023-05-09T06:10:41.669Z,100405.84
2023-05-09T06:13:09.641Z,100395.50
2023-05-09T06:15:39.765Z,100405.78
2023-05-09T06:18:09.009Z,100395.03
2023-05-09T06:20:37.087Z,100409.59
2023-05-09T06:23:06.407Z,100405.50
2023-05-09T06:25:34.473Z,100399.59
2023-05-09T06:28:02.365Z,100400.03
2023-05-09T06:30:30.306Z,100403.66
2023-05-09T06:32:59.943Z,100400.66
2023-05-09T06:35:27.901Z,100406.09
2023-05-09T06:37:55.820Z,100404.09
2023-05-09T06:40:24.999Z,100405.38
2023-05-09T06:42:52.926Z,100399.84
2023-05-09T06:45:21.656Z,100406.94
2023-05-09T06:47:49.748Z,100398.25
2023-05-09T06:50:17.870Z,100400.34
2023-05-09T06:52:45.887Z,100396.84
2023-05-09T06:55:13.919Z,100401.94
2023-05-09T06:57:43.450Z,100396.19
2023-05-09T07:00:12.579Z,100396.31
2023-05-09T07:02:42.014Z,100397.13
2023-05-09T07:05:11.050Z,100378.56
2023-05-09T07:07:39.156Z,100379.88
2023-05-09T07:10:11.740Z,100372.78
2023-05-09T07:12:40.410Z,100372.91
2023-05-09T07:15:11.351Z,100374.84
2023-05-09T07:17:39.510Z,100371.03
2023-05-09T07:20:08.488Z,100376.06
2023-05-09T07:22:37.418Z,100379.38
2023-05-09T07:25:08.451Z,100373.50
2023-05-09T07:27:36.698Z,100351.81
2023-05-09T07:30:04.790Z,100371.50
2023-05-09T07:32:34.331Z,100362.44
2023-05-09T07:35:03.074Z,100366.88
2023-05-09T07:37:32.370Z,100366.16
2023-05-09T07:40:00.461Z,100365.47
2023-05-09T07:42:28.342Z,100359.75
2023-05-09T07:44:56.351Z,100358.31
2023-05-09T07:47:24.617Z,100363.47
2023-05-09T07:49:53.943Z,100356.09
2023-05-09T07:52:21.778Z,100363.94
2023-05-09T07:54:49.827Z,100355.84
2023-05-09T07:57:17.903Z,100353.72
2023-05-09T07:59:45.800Z,100352.22
2023-05-09T08:02:13.727Z,100344.66
2023-05-09T08:04:42.063Z,100346.25
2023-05-09T08:07:11.809Z,100344.47
2023-05-09T08:09:39.833Z,100337.56
2023-05-09T08:12:08.325Z,100337.44
2023-05-09T08:14:36.227Z,100334.66
2023-05-09T08:17:04.193Z,100331.88
2023-05-09T08:19:32.075Z,100333.72
2023-05-09T08:22:00.652Z,100323.91
2023-05-09T08:24:29.976Z,100319.88
2023-05-09T08:26:58.002Z,100309.91
2023-05-09T08:29:25.982Z,100317.63
2023-05-09T08:31:53.925Z,100314.41
2023-05-09T08:34:22.093Z,100306.00
2023-05-09T08:36:50.019Z,100316.97
2023-05-09T08:39:17.872Z,100305.31
2023-05-09T08:41:47.437Z,100316.31
2023-05-09T08:44:15.621Z,100306.34
2023-05-09T08:46:45.294Z,100305.66
2023-05-09T08:49:13.567Z,100306.63
2023-05-09T08:51:41.805Z,100304.25
2023-05-09T08:54:09.970Z,100297.53
2023-05-09T08:56:38.110Z,100295.00
2023-05-09T08:59:07.693Z,100286.50
2023-05-09T09:01:36.696Z,100287.50
2023-05-09T09:04:07.280Z,100287.56
2023-05-09T09:06:36.429Z,100279.22
2023-05-09T09:09:07.071Z,100282.50
2023-05-09T09:11:36.023Z,100278.94
2023-05-09T09:14:12.808Z,100285.75
2023-05-09T09:16:43.902Z,100278.47
2023-05-09T09:19:13.940Z,100272.72
2023-05-09T09:21:43.984Z,100275.38
2023-05-09T09:24:14.452Z,100270.47
2023-05-09T09:26:48.313Z,100275.63
2023-05-09T09:29:18.905Z,100263.84
2023-05-09T09:31:48.187Z,100269.84
2023-05-09T09:34:24.153Z,100264.97
2023-05-09T09:36:52.243Z,100267.53
2023-05-09T09:39:21.665Z,100271.69
2023-05-09T09:41:49.805Z,100275.03
2023-05-09T09:44:20.184Z,100275.09
2023-05-09T09:46:50.525Z,100273.47
2023-05-09T09:49:20.192Z,100270.13
2023-05-09T09:51:52.032Z,100269.38
2023-05-09T09:54:20.315Z,100266.13
2023-05-09T09:56:49.641Z,100246.84
2023-05-09T09:59:21.213Z,100258.97
2023-05-09T10:01:56.821Z,100247.50
2023-05-09T10:04:25.964Z,100243.63
2023-05-09T10:06:55.259Z,100249.66
2023-05-09T10:09:23.944Z,100243.91
2023-05-09T10:11:53.596Z,100239.13
2023-05-09T10:14:24.270Z,100240.19
2023-05-09T10:16:53.577Z,100237.78
2023-05-09T10:19:23.008Z,100230.25
2023-05-09T10:21:56.239Z,100231.19
2023-05-09T10:24:29.546Z,100232.25
2023-05-09T10:27:04.169Z,100229.91
2023-05-09T10:29:37.478Z,100231.03
2023-05-09T10:32:14.131Z,100235.38
2023-05-09T10:34:45.117Z,100223.59
2023-05-09T10:37:13.737Z,100228.75
2023-05-09T10:39:42.845Z,100226.28
2023-05-09T10:42:11.062Z,100227.16
2023-05-09T10:44:40.740Z,100223.84
2023-05-09T10:47:09.060Z,100223.03
2023-05-09T10:49:37.547Z,100218.06
2023-05-09T10:52:05.963Z,100215.53
2023-05-09T10:54:34.265Z,100218.03
2023-05-09T10:57:02.192Z,100213.78
2023-05-09T10:59:37.857Z,100205.44
2023-05-09T11:02:12.365Z,100203.91
2023-05-09T11:04:41.063Z,100202.47
2023-05-09T11:07:25.190Z,100200.94
2023-05-09T11:09:53.679Z,100205.91
2023-05-09T11:12:24.807Z,100194.91
2023-05-09T11:14:53.847Z,100192.38
2023-05-09T11:17:32.727Z,100173.81
2023-05-09T11:20:05.396Z,100190.84
2023-05-09T11:22:41.319Z,100183.31
2023-05-09T11:25:10.761Z,100181.69
2023-05-09T11:27:42.452Z,100176.59
2023-05-09T11:30:12.496Z,100175.69
2023-05-09T11:32:47.550Z,100170.63
2023-05-09T11:35:17.762Z,100165.56
2023-05-09T11:37:48.199Z,100163.94
2023-05-09T11:40:18.383Z,100164.81
2023-05-09T11:42:47.929Z,100158.16
2023-05-09T11:45:16.284Z,100164.09
2023-05-09T11:47:47.293Z,100161.56
2023-05-09T11:50:17.171Z,100156.50
2023-05-09T11:52:45.222Z,100149.75
2023-05-09T11:55:15.563Z,100152.22
2023-05-09T11:57:46.417Z,100150.38
2023-05-09T12:00:17.017Z,100145.28
2023-05-09T12:02:47.160Z,100138.44
2023-05-09T12:05:17.020Z,100145.28
2023-05-09T12:07:46.442Z,100144.56
2023-05-09T12:10:16.555Z,100142.09
2023-05-09T12:12:46.409Z,100137.13
2023-05-09T12:15:15.390Z,100128.72
2023-05-09T12:17:44.403Z,100128.72
2023-05-09T12:20:14.567Z,100128.69
2023-05-09T12:22:44.415Z,100120.22
2023-05-09T12:25:12.735Z,100114.31
2023-05-09T12:27:41.752Z,100115.22
2023-05-09T12:30:11.979Z,100118.56
2023-05-09T12:32:40.553Z,100115.22
2023-05-09T12:35:10.778Z,100109.31
2023-05-09T12:37:40.315Z,100113.53
2023-05-09T12:40:13.037Z,100107.63
2023-05-09T12:42:44.995Z,100104.25
2023-05-09T12:45:13.669Z,100099.16
2023-05-09T12:47:42.486Z,100094.06
2023-05-09T12:50:13.234Z,100089.84
2023-05-09T12:53:02.200Z,100076.28
2023-05-09T12:55:39.544Z,100090.66
2023-05-09T12:58:07.860Z,100085.56
2023-05-09T13:00:45.405Z,100088.88
2023-05-09T13:03:25.337Z,100078.66
2023-05-09T13:05:59.054Z,100086.28
2023-05-09T13:08:29.090Z,100083.03
2023-05-09T13:11:07.983Z,100074.63
2023-05-09T13:13:43.085Z,100071.28
2023-05-09T13:16:12.163Z,100067.88
2023-05-09T13:18:42.086Z,100069.59
2023-05-09T13:21:10.044Z,100058.59
2023-05-09T13:23:39.319Z,100056.03
2023-05-09T13:26:07.300Z,100063.59
2023-05-09T13:28:35.257Z,100055.13
2023-05-09T13:31:04.041Z,100052.59
2023-05-09T13:33:32.110Z,100047.44
2023-05-09T13:36:00.190Z,100037.94
2023-05-09T13:38:30.839Z,100032.69
2023-05-09T13:41:00.401Z,100028.22
2023-05-09T13:43:28.353Z,100028.75
2023-05-09T13:45:56.270Z,100031.91
2023-05-09T13:48:24.176Z,100024.09
2023-05-09T13:50:52.312Z,100023.00
2023-05-09T13:53:20.609Z,100020.22
2023-05-09T13:55:48.480Z,100021.91
2023-05-09T13:58:17.782Z,100009.38
2023-05-09T14:00:45.919Z,100012.31
2023-05-09T14:03:13.905Z,100006.75
2023-05-09T14:05:42.299Z,100004.38
2023-05-09T14:08:11.076Z,99999.50
2023-05-09T14:10:39.019Z,99996.44
2023-05-09T14:13:08.306Z,99997.94
2023-05-09T14:15:37.814Z,99991.19
2023-05-09T14:18:05.958Z,99993.91
2023-05-09T14:20:36.810Z,99991.50
2023-05-09T14:23:04.811Z,99983.84
2023-05-09T14:25:32.697Z,99997.50
2023-05-09T14:28:00.620Z,99992.19
2023-05-09T14:30:28.498Z,100003.16
2023-05-09T14:32:57.761Z,100001.25
2023-05-09T14:35:25.709Z,99997.84
2023-05-09T14:37:53.693Z,100001.09
2023-05-09T14:40:21.866Z,99989.13
2023-05-09T14:42:49.807Z,99989.69
2023-05-09T14:45:17.857Z,99980.84
2023-05-09T14:47:48.020Z,99993.03
2023-05-09T14:50:17.574Z,99987.03
2023-05-09T14:52:45.664Z,99981.41
2023-05-09T14:55:13.586Z,99984.19
2023-05-09T14:57:41.557Z,99972.44
2023-05-09T15:00:20.432Z,99966.16
2023-05-09T15:02:48.984Z,99961.50
2023-05-09T15:05:18.409Z,99958.63
2023-05-09T15:07:46.377Z,99963.00
2023-05-09T15:10:14.849Z,99963.59
2023-05-09T15:12:43.013Z,99951.69
2023-05-09T15:15:16.150Z,99937.25
2023-05-09T15:17:44.230Z,99951.06
2023-05-09T15:20:15.187Z,99931.63
2023-05-09T15:22:45.276Z,99938.78
2023-05-09T15:25:13.157Z,99939.28
2023-05-09T15:27:41.264Z,99941.28
2023-05-09T15:30:10.149Z,99936.06
2023-05-09T15:32:39.822Z,99939.59
2023-05-09T15:35:08.793Z,99935.56
2023-05-09T15:37:36.856Z,99936.53
2023-05-09T15:40:07.836Z,99935.91
2023-05-09T15:42:36.018Z,99925.78
2023-05-09T15:45:04.113Z,99929.28
2023-05-09T15:47:32.184Z,99929.28
2023-05-09T15:50:00.210Z,99934.13
2023-05-09T15:52:28.147Z,99930.34
2023-05-09T15:54:56.524Z,99921.44
2023-05-09T15:57:25.975Z,99926.06
2023-05-09T15:59:57.289Z,99920.47
2023-05-09T16:02:25.307Z,99925.00
2023-05-09T16:04:53.270Z,99919.94
2023-05-09T16:07:21.153Z,99921.69
2023-05-09T16:09:49.021Z,99897.59
2023-05-09T16:12:16.924Z,99910.63
2023-05-09T16:14:46.168Z,99905.59
2023-05-09T16:17:14.084Z,99916.44
2023-05-09T16:19:42.351Z,99910.50
2023-05-09T16:22:10.339Z,99896.97
2023-05-09T16:24:38.614Z,99895.56
2023-05-09T16:27:06.501Z,99898.41
2023-05-09T16:29:34.400Z,99888.66
2023-05-09T16:32:04.297Z,99885.91
2023-05-09T16:34:32.845Z,99883.47
2023-05-09T16:37:00.970Z,99884.91
2023-05-09T16:39:28.953Z,99882.38
2023-05-09T16:41:57.078Z,99886.69
2023-05-09T16:44:26.358Z,99889.44
2023-05-09T16:46:54.346Z,99886.09
2023-05-09T16:49:23.670Z,99879.91
2023-05-09T16:51:51.516Z,99883.34
2023-05-09T16:54:19.419Z,99886.72
2023-05-09T16:56:48.010Z,99889.13
2023-05-09T16:59:17.299Z,99883.00
2023-05-09T17:01:46.397Z,99876.69
2023-05-09T17:04:14.567Z,99884.78
2023-05-09T17:06:43.823Z,99878.38
2023-05-09T17:09:11.741Z,99882.66
2023-05-09T17:11:39.647Z,99879.00
2023-05-09T17:14:07.600Z,99875.44
2023-05-09T17:16:37.872Z,99877.03
2023-05-09T17:19:06.232Z,99866.84
2023-05-09T17:21:34.182Z,99866.84
2023-05-09T17:24:03.501Z,99871.81
2023-05-09T17:26:31.744Z,99862.47
2023-05-09T17:28:59.704Z,99867.63
2023-05-09T17:31:27.809Z,99862.78
2023-05-09T17:33:55.962Z,99869.81
2023-05-09T17:36:23.912Z,99849.84
2023-05-09T17:38:52.318Z,99872.03
2023-05-09T17:41:22.175Z,99869.75
2023-05-09T17:43:51.887Z,99871.63
2023-05-09T17:46:19.837Z,99875.16
2023-05-09T17:48:48.211Z,99865.97
2023-05-09T17:51:16.882Z,99862.69
2023-05-09T17:53:44.917Z,99866.91
2023-05-09T17:56:12.791Z,99863.53
2023-05-09T17:58:42.115Z,99869.50
2023-05-09T18:01:10.198Z,99864.41
2023-05-09T18:03:39.134Z,99860.22
2023-05-09T18:06:07.155Z,99862.75
2023-05-09T18:08:35.201Z,99860.22
2023-05-09T18:11:03.177Z,99840.78
2023-05-09T18:13:31.565Z,99863.53
2023-05-09T18:16:01.583Z,99862.69
2023-05-09T18:18:32.269Z,99851.72
2023-05-09T18:21:00.436Z,99854.19
2023-05-09T18:23:28.434Z,99840.69
2023-05-09T18:25:56.676Z,99863.47
2023-05-09T18:28:25.589Z,99865.09
2023-05-09T18:30:54.637Z,99867.63
2023-05-09T18:33:25.733Z,99872.66
2023-05-09T18:35:53.984Z,99868.38
2023-05-09T18:38:22.539Z,99874.25
2023-05-09T18:40:51.773Z,99876.72
2023-05-09T18:43:20.784Z,99879.16
2023-05-09T18:45:49.126Z,99879.94
2023-05-09T18:48:17.154Z,99893.41
2023-05-09T18:50:47.150Z,99879.06
2023-05-09T18:53:15.035Z,99886.59
2023-05-09T18:55:42.935Z,99884.91
2023-05-09T18:58:10.886Z,99890.78
2023-05-09T19:00:39.382Z,99885.72
2023-05-09T19:03:07.629Z,99885.66
2023-05-09T19:05:35.656Z,99887.31
2023-05-09T19:08:05.202Z,99884.72
2023-05-09T19:10:33.705Z,99888.09
2023-05-09T19:13:01.606Z,99887.25
2023-05-09T19:15:30.354Z,99891.41
2023-05-09T19:17:58.464Z,99891.38
2023-05-09T19:20:26.654Z,99895.53
2023-05-09T19:22:54.599Z,99887.97
2023-05-09T19:25:24.034Z,99886.25
2023-05-09T19:27:52.586Z,99893.78
2023-05-09T19:30:21.192Z,99883.72
2023-05-09T19:32:49.366Z,99890.47
2023-05-09T19:35:17.362Z,99890.47
2023-05-09T19:37:45.352Z,99885.47
2023-05-09T19:40:13.474Z,99880.44
2023-05-09T19:42:42.889Z,99879.53
2023-05-09T19:45:11.639Z,99884.59
2023-05-09T19:47:39.570Z,99890.47
2023-05-09T19:50:08.590Z,99888.78
2023-05-09T19:52:37.311Z,99884.47
2023-05-09T19:55:05.894Z,99889.44
2023-05-09T19:57:33.883Z,99880.81
2023-05-09T20:00:03.175Z,99873.09
2023-05-09T20:02:34.630Z,99883.19
2023-05-09T20:05:02.726Z,99880.66
2023-05-09T20:07:32.498Z,99879.84
2023-05-09T20:10:00.370Z,99879.00
2023-05-09T20:12:30.248Z,99884.88
2023-05-09T20:14:58.422Z,99885.72
2023-05-09T20:17:27.846Z,99886.50
2023-05-09T20:19:56.276Z,99882.31
2023-05-09T20:22:24.401Z,99884.00
2023-05-09T20:24:52.255Z,99873.91
2023-05-09T20:27:20.182Z,99873.88
2023-05-09T20:29:48.033Z,99874.69
2023-05-09T20:32:15.900Z,99874.75
2023-05-09T20:34:45.147Z,99875.59
2023-05-09T20:37:13.030Z,99875.56
2023-05-09T20:39:40.933Z,99865.38
2023-05-09T20:42:09.046Z,99861.97
2023-05-09T20:44:37.528Z,99873.72
2023-05-09T20:47:05.509Z,99861.94
2023-05-09T20:49:33.400Z,99862.78
2023-05-09T20:52:02.740Z,99856.09
2023-05-09T20:54:30.912Z,99856.06
2023-05-09T20:56:58.796Z,99861.97
2023-05-09T20:59:26.626Z,99850.25
2023-05-09T21:01:55.565Z,99836.78
2023-05-09T21:04:23.617Z,99849.50
2023-05-09T21:06:51.522Z,99837.75
2023-05-09T21:09:20.731Z,99840.31
2023-05-09T21:11:48.574Z,99841.94
2023-05-09T21:14:16.381Z,99842.69
2023-05-09T21:16:45.131Z,99836.78
2023-05-09T21:19:13.078Z,99834.31
2023-05-09T21:21:40.941Z,99833.44
2023-05-09T21:24:09.728Z,99835.16
2023-05-09T21:26:38.950Z,99828.53
2023-05-09T21:29:07.070Z,99829.44
2023-05-09T21:31:34.985Z,99829.41
2023-05-09T21:34:09.492Z,99831.94
2023-05-09T21:36:37.840Z,99826.84
2023-05-09T21:39:08.967Z,99825.09
2023-05-09T21:41:37.096Z,99832.66
2023-05-09T21:44:07.306Z,99819.28
2023-05-09T21:46:36.216Z,99831.94
2023-05-09T21:49:04.291Z,99823.53
2023-05-09T21:51:33.426Z,99825.22
2023-05-09T21:54:01.817Z,99819.34
2023-05-09T21:56:29.713Z,99818.50
2023-05-09T21:58:57.558Z,99821.84
2023-05-09T22:01:26.842Z,99816.75
2023-05-09T22:03:54.841Z,99814.31
2023-05-09T22:06:22.904Z,99810.19
2023-05-09T22:08:51.132Z,99804.28
2023-05-09T22:11:18.971Z,99816.13
2023-05-09T22:13:46.852Z,99806.09
2023-05-09T22:16:14.703Z,99808.56
2023-05-09T22:18:43.997Z,99804.31
2023-05-09T22:21:12.552Z,99807.69
2023-05-09T22:23:40.678Z,99808.53
2023-05-09T22:26:08.610Z,99798.41
2023-05-09T22:28:37.270Z,99798.34
2023-05-09T22:31:06.595Z,99799.97
2023-05-09T22:33:34.535Z,99794.06
2023-05-09T22:36:03.797Z,99793.16
2023-05-09T22:38:31.686Z,99794.78
2023-05-09T22:40:59.599Z,99783.72
2023-05-09T22:43:36.544Z,99783.66
2023-05-09T22:46:06.957Z,99790.34
2023-05-09T22:48:34.998Z,99794.53
2023-05-09T22:51:04.557Z,99795.38
2023-05-09T22:53:32.762Z,99776.00
2023-05-09T22:56:00.827Z,99791.25
2023-05-09T22:58:28.827Z,99782.81
2023-05-09T23:00:56.758Z,99782.78
2023-05-09T23:03:24.817Z,99769.28
2023-05-09T23:05:52.863Z,99781.09
2023-05-09T23:08:22.090Z,99776.88
2023-05-09T23:10:49.948Z,99768.50
2023-05-09T23:13:18.304Z,99766.00
2023-05-09T23:15:48.125Z,99765.06
2023-05-09T23:18:16.090Z,99739.69
2023-05-09T23:20:43.989Z,99762.47
2023-05-09T23:23:11.904Z,99748.97
2023-05-09T23:25:41.245Z,99757.34
2023-05-09T23:28:09.309Z,99757.28
2023-05-09T23:30:37.323Z,99745.41
2023-05-09T23:33:05.373Z,99742.75
2023-05-09T23:35:33.308Z,99747.75
2023-05-09T23:38:01.187Z,99733.41
2023-05-09T23:40:29.105Z,99743.56
2023-05-09T23:42:58.364Z,99730.91
2023-05-09T23:45:26.853Z,99718.31
2023-05-09T23:47:54.744Z,99732.56
2023-05-09T23:50:22.808Z,99732.53
2023-05-09T23:52:51.147Z,99729.16
2023-05-09T23:55:19.354Z,99724.16
2023-05-09T23:57:47.350Z,99724.25
